Kezdőlap
METAR-TAF:

METAR-TAF

Repülőterek :

Valledupar, Kolumbia

földrajzi szélesség: 10-26N, földrajzi hosszúság: 073-15W, magasság: 138 m

Jelenlegi meteorológiai megfigyelések

A jelentés 3 órával és 24 perccel ezelõtt készült, 03:00 UTC
Kelet-északkeleti szél 3 kt
Hőmérséklet 24°C
Páratartalom 100%
Légköri nyomás 1012 hPa
Látótávolság 10 km, vagy több
Kevés felhő 1000 lábon
Szórványos felhőzet 7000 lábon
csekély köd,

METAR: SKVP 130300Z 07003KT 9999 MIFG FEW010 SCT070 24/24 Q1012

Idő: 01:24 (06:24 UTC)


TAF: hiányzik

Meteorológiai megfigyelések és előrejelzések több, mint 4000 repülőtéren (METAR és TAF jelentéseket).

A térképen piros és sárga pontok jelzik az elérhető meteorológiai állomásokat.

Mozgassa az egeret a pont fölött, hogy megjelenjen az állomás neve.

Azután kattintson az időjárási megfigyelések és előrejelzések megtekintéséhez.

A térkép megváltoztatása: kattintson a fekete keresztel jelölt zöld gombra ráközelítéshez, a vonallal jelölt zöld gombra távolításhoz, vagy a zöld nyilakra a szomszédos térképek eléréséhez.


METAR-TAF: